sensor_id;sensor_type;location;lat;lon;timestamp;P1;durP1;ratioP1;P2;durP2;ratioP2
16189;SDS011;41754;51.498;7.540;2022-07-18T05:25:50;3.88;;;2.25;;
16189;SDS011;41754;51.498;7.540;2022-07-18T05:29:12;6.05;;;2.25;;
16189;SDS011;41754;51.498;7.540;2022-07-18T05:31:40;4.07;;;2.57;;
16189;SDS011;41754;51.498;7.540;2022-07-18T05:34:08;5.22;;;3.15;;
16189;SDS011;41754;51.498;7.540;2022-07-18T05:36:36;5.07;;;2.15;;
16189;SDS011;41754;51.498;7.540;2022-07-18T05:39:04;5.15;;;2.75;;
16189;SDS011;41754;51.498;7.540;2022-07-18T05:41:32;7.28;;;2.28;;
16189;SDS011;41754;51.498;7.540;2022-07-18T05:44:49;6.05;;;3.83;;
16189;SDS011;41754;51.498;7.540;2022-07-18T05:47:17;11.45;;;7.68;;
16189;SDS011;41754;51.498;7.540;2022-07-18T05:49:45;7.65;;;6.75;;
16189;SDS011;41754;51.498;7.540;2022-07-18T05:52:13;3.53;;;2.80;;
16189;SDS011;41754;51.498;7.540;2022-07-18T05:54:41;4.85;;;3.30;;
16189;SDS011;41754;51.498;7.540;2022-07-18T05:57:09;5.68;;;2.65;;
16189;SDS011;41754;51.498;7.540;2022-07-18T05:59:37;4.07;;;2.40;;
16189;SDS011;41754;51.498;7.540;2022-07-18T15:59:54;3.97;;;1.70;;
16189;SDS011;41754;51.498;7.540;2022-07-18T16:02:22;4.22;;;2.70;;
16189;SDS011;41754;51.498;7.540;2022-07-18T16:04:50;2.67;;;2.00;;
16189;SDS011;41754;51.498;7.540;2022-07-18T16:07:18;3.47;;;2.42;;
16189;SDS011;41754;51.498;7.540;2022-07-18T16:09:46;2.22;;;1.65;;
16189;SDS011;41754;51.498;7.540;2022-07-18T16:12:14;3.78;;;1.80;;
16189;SDS011;41754;51.498;7.540;2022-07-18T16:14:43;1.70;;;1.60;;
16189;SDS011;41754;51.498;7.540;2022-07-18T16:17:12;3.60;;;2.80;;
16189;SDS011;41754;51.498;7.540;2022-07-18T16:19:40;3.50;;;1.40;;
16189;SDS011;41754;51.498;7.540;2022-07-18T16:22:07;3.13;;;1.60;;
16189;SDS011;41754;51.498;7.540;2022-07-18T16:24:35;2.92;;;1.25;;
16189;SDS011;41754;51.498;7.540;2022-07-18T16:27:03;2.88;;;1.40;;
16189;SDS011;41754;51.498;7.540;2022-07-18T16:29:31;2.78;;;2.58;;
16189;SDS011;41754;51.498;7.540;2022-07-18T16:31:59;1.67;;;1.58;;
16189;SDS011;41754;51.498;7.540;2022-07-18T16:34:28;4.75;;;1.30;;
16189;SDS011;41754;51.498;7.540;2022-07-18T16:36:56;1.48;;;1.30;;
16189;SDS011;41754;51.498;7.540;2022-07-18T16:39:25;1.33;;;1.15;;
16189;SDS011;41754;51.498;7.540;2022-07-18T16:41:53;2.83;;;1.92;;
16189;SDS011;41754;51.498;7.540;2022-07-18T16:44:28;3.28;;;1.60;;
16189;SDS011;41754;51.498;7.540;2022-07-18T16:46:56;2.05;;;1.48;;
16189;SDS011;41754;51.498;7.540;2022-07-18T16:49:24;3.58;;;1.67;;
16189;SDS011;41754;51.498;7.540;2022-07-18T16:51:54;2.30;;;2.10;;
16189;SDS011;41754;51.498;7.540;2022-07-18T16:54:23;3.75;;;2.10;;
16189;SDS011;41754;51.498;7.540;2022-07-18T16:56:51;1.95;;;1.58;;
16189;SDS011;41754;51.498;7.540;2022-07-18T16:59:19;5.22;;;1.75;;
16189;SDS011;41754;51.498;7.540;2022-07-18T17:01:47;2.35;;;1.63;;
16189;SDS011;41754;51.498;7.540;2022-07-18T17:04:16;3.55;;;1.83;;
16189;SDS011;41754;51.498;7.540;2022-07-18T17:06:44;5.75;;;1.80;;
16189;SDS011;41754;51.498;7.540;2022-07-18T17:09:14;2.85;;;1.50;;
16189;SDS011;41754;51.498;7.540;2022-07-18T17:11:42;3.58;;;1.67;;
16189;SDS011;41754;51.498;7.540;2022-07-18T17:14:10;2.03;;;1.83;;
16189;SDS011;41754;51.498;7.540;2022-07-18T17:16:38;2.35;;;1.70;;
16189;SDS011;41754;51.498;7.540;2022-07-18T17:19:07;1.92;;;1.83;;
16189;SDS011;41754;51.498;7.540;2022-07-18T17:21:35;2.10;;;1.50;;
16189;SDS011;41754;51.498;7.540;2022-07-18T17:24:03;3.50;;;2.90;;
16189;SDS011;41754;51.498;7.540;2022-07-18T17:26:33;3.60;;;2.88;;
16189;SDS011;41754;51.498;7.540;2022-07-18T17:29:01;2.95;;;2.00;;
16189;SDS011;41754;51.498;7.540;2022-07-18T17:31:29;1.27;;;1.25;;
16189;SDS011;41754;51.498;7.540;2022-07-18T17:33:58;1.85;;;1.75;;
16189;SDS011;41754;51.498;7.540;2022-07-18T17:36:26;1.75;;;1.55;;
16189;SDS011;41754;51.498;7.540;2022-07-18T17:38:55;3.50;;;1.58;;
16189;SDS011;41754;51.498;7.540;2022-07-18T17:41:23;2.60;;;1.98;;
16189;SDS011;41754;51.498;7.540;2022-07-18T17:43:53;1.70;;;1.60;;
16189;SDS011;41754;51.498;7.540;2022-07-18T17:46:21;4.07;;;1.70;;
16189;SDS011;41754;51.498;7.540;2022-07-18T17:48:55;2.83;;;2.15;;
16189;SDS011;41754;51.498;7.540;2022-07-18T17:51:23;4.00;;;1.90;;
16189;SDS011;41754;51.498;7.540;2022-07-18T17:53:51;2.20;;;2.03;;
16189;SDS011;41754;51.498;7.540;2022-07-18T17:56:22;2.60;;;1.80;;
16189;SDS011;41754;51.498;7.540;2022-07-18T17:58:50;3.08;;;1.50;;
16189;SDS011;41754;51.498;7.540;2022-07-18T18:01:19;3.63;;;1.60;;
16189;SDS011;41754;51.498;7.540;2022-07-18T18:03:47;4.68;;;2.50;;
16189;SDS011;41754;51.498;7.540;2022-07-18T18:06:16;3.88;;;3.28;;
16189;SDS011;41754;51.498;7.540;2022-07-18T18:08:44;2.13;;;1.92;;
16189;SDS011;41754;51.498;7.540;2022-07-18T18:11:12;2.58;;;2.28;;
16189;SDS011;41754;51.498;7.540;2022-07-18T18:13:47;3.10;;;2.50;;
16189;SDS011;41754;51.498;7.540;2022-07-18T18:16:15;2.35;;;1.90;;
16189;SDS011;41754;51.498;7.540;2022-07-18T18:18:45;2.97;;;1.67;;
16189;SDS011;41754;51.498;7.540;2022-07-18T18:21:13;3.72;;;1.70;;
16189;SDS011;41754;51.498;7.540;2022-07-18T18:23:41;3.50;;;1.80;;
16189;SDS011;41754;51.498;7.540;2022-07-18T18:26:09;3.33;;;2.08;;
16189;SDS011;41754;51.498;7.540;2022-07-18T18:28:37;2.92;;;2.00;;
16189;SDS011;41754;51.498;7.540;2022-07-18T18:31:05;3.80;;;2.20;;
16189;SDS011;41754;51.498;7.540;2022-07-18T18:33:33;2.80;;;2.58;;
16189;SDS011;41754;51.498;7.540;2022-07-18T18:36:03;5.15;;;4.65;;
16189;SDS011;41754;51.498;7.540;2022-07-18T18:38:35;8.48;;;5.03;;
16189;SDS011;41754;51.498;7.540;2022-07-18T18:41:03;5.53;;;4.93;;
16189;SDS011;41754;51.498;7.540;2022-07-18T18:43:31;4.53;;;4.07;;
16189;SDS011;41754;51.498;7.540;2022-07-18T18:45:59;4.93;;;3.90;;
16189;SDS011;41754;51.498;7.540;2022-07-18T18:48:27;7.97;;;5.43;;
16189;SDS011;41754;51.498;7.540;2022-07-18T18:50:55;10.20;;;5.00;;
16189;SDS011;41754;51.498;7.540;2022-07-18T18:53:24;5.75;;;5.05;;
16189;SDS011;41754;51.498;7.540;2022-07-18T18:55:52;7.28;;;4.78;;
16189;SDS011;41754;51.498;7.540;2022-07-18T18:58:20;9.10;;;5.38;;
16189;SDS011;41754;51.498;7.540;2022-07-18T19:00:55;6.70;;;4.97;;
16189;SDS011;41754;51.498;7.540;2022-07-18T19:03:23;7.38;;;4.25;;
16189;SDS011;41754;51.498;7.540;2022-07-18T19:05:50;8.00;;;5.18;;
16189;SDS011;41754;51.498;7.540;2022-07-18T19:08:18;7.50;;;6.22;;
16189;SDS011;41754;51.498;7.540;2022-07-18T19:10:48;13.18;;;8.32;;
16189;SDS011;41754;51.498;7.540;2022-07-18T19:13:16;9.00;;;7.18;;
16189;SDS011;41754;51.498;7.540;2022-07-18T19:15:44;7.47;;;5.70;;
16189;SDS011;41754;51.498;7.540;2022-07-18T19:18:11;6.47;;;5.30;;
16189;SDS011;41754;51.498;7.540;2022-07-18T19:20:39;9.63;;;5.43;;
16189;SDS011;41754;51.498;7.540;2022-07-18T19:23:07;6.22;;;4.20;;
16189;SDS011;41754;51.498;7.540;2022-07-18T19:25:35;6.60;;;3.60;;
16189;SDS011;41754;51.498;7.540;2022-07-18T19:28:04;8.23;;;3.30;;
16189;SDS011;41754;51.498;7.540;2022-07-18T19:30:33;6.68;;;3.50;;
16189;SDS011;41754;51.498;7.540;2022-07-18T19:33:01;4.82;;;3.50;;
16189;SDS011;41754;51.498;7.540;2022-07-18T19:35:29;5.60;;;3.25;;
16189;SDS011;41754;51.498;7.540;2022-07-18T19:37:57;4.85;;;3.70;;
16189;SDS011;41754;51.498;7.540;2022-07-18T19:40:24;8.70;;;4.07;;
16189;SDS011;41754;51.498;7.540;2022-07-18T19:42:53;6.47;;;4.10;;
16189;SDS011;41754;51.498;7.540;2022-07-18T19:45:23;4.38;;;3.97;;
16189;SDS011;41754;51.498;7.540;2022-07-18T19:47:51;7.45;;;3.72;;
16189;SDS011;41754;51.498;7.540;2022-07-18T19:50:19;5.40;;;3.63;;
16189;SDS011;41754;51.498;7.540;2022-07-18T19:52:47;7.70;;;3.35;;
16189;SDS011;41754;51.498;7.540;2022-07-18T19:55:15;6.05;;;3.60;;
16189;SDS011;41754;51.498;7.540;2022-07-18T19:57:43;5.05;;;3.10;;
16189;SDS011;41754;51.498;7.540;2022-07-18T20:00:12;7.65;;;3.92;;
16189;SDS011;41754;51.498;7.540;2022-07-18T20:02:45;6.13;;;3.65;;
16189;SDS011;41754;51.498;7.540;2022-07-18T20:05:13;6.25;;;4.13;;
16189;SDS011;41754;51.498;7.540;2022-07-18T20:07:41;5.13;;;3.70;;
16189;SDS011;41754;51.498;7.540;2022-07-18T20:10:09;5.45;;;3.15;;
16189;SDS011;41754;51.498;7.540;2022-07-18T20:12:37;9.32;;;3.63;;
16189;SDS011;41754;51.498;7.540;2022-07-18T20:15:06;6.68;;;3.30;;
16189;SDS011;41754;51.498;7.540;2022-07-18T20:17:35;7.38;;;3.58;;
16189;SDS011;41754;51.498;7.540;2022-07-18T20:20:05;4.90;;;3.67;;
16189;SDS011;41754;51.498;7.540;2022-07-18T20:22:33;4.60;;;3.17;;
16189;SDS011;41754;51.498;7.540;2022-07-18T20:25:01;7.95;;;2.95;;
16189;SDS011;41754;51.498;7.540;2022-07-18T20:27:28;4.50;;;2.90;;
16189;SDS011;41754;51.498;7.540;2022-07-18T20:29:56;4.53;;;2.55;;
16189;SDS011;41754;51.498;7.540;2022-07-18T20:32:25;5.18;;;3.15;;
16189;SDS011;41754;51.498;7.540;2022-07-18T20:34:53;4.05;;;3.65;;
16189;SDS011;41754;51.498;7.540;2022-07-18T20:37:22;5.85;;;5.05;;
16189;SDS011;41754;51.498;7.540;2022-07-18T20:39:50;5.75;;;3.40;;
16189;SDS011;41754;51.498;7.540;2022-07-18T20:42:18;8.82;;;3.45;;
16189;SDS011;41754;51.498;7.540;2022-07-18T20:44:45;6.50;;;3.25;;
16189;SDS011;41754;51.498;7.540;2022-07-18T20:47:13;5.57;;;3.38;;
16189;SDS011;41754;51.498;7.540;2022-07-18T20:49:41;6.30;;;3.75;;
16189;SDS011;41754;51.498;7.540;2022-07-18T20:52:09;6.22;;;4.22;;
16189;SDS011;41754;51.498;7.540;2022-07-18T20:54:38;9.45;;;3.78;;
16189;SDS011;41754;51.498;7.540;2022-07-18T20:57:26;4.63;;;4.22;;
16189;SDS011;41754;51.498;7.540;2022-07-18T20:59:54;7.68;;;5.10;;
16189;SDS011;41754;51.498;7.540;2022-07-18T21:02:22;4.85;;;4.30;;
16189;SDS011;41754;51.498;7.540;2022-07-18T21:04:50;4.65;;;3.30;;
16189;SDS011;41754;51.498;7.540;2022-07-18T21:07:18;4.07;;;3.35;;
16189;SDS011;41754;51.498;7.540;2022-07-18T21:09:47;5.47;;;3.50;;
16189;SDS011;41754;51.498;7.540;2022-07-18T21:12:15;4.22;;;3.25;;
16189;SDS011;41754;51.498;7.540;2022-07-18T21:14:43;4.38;;;2.85;;
16189;SDS011;41754;51.498;7.540;2022-07-18T21:17:38;5.60;;;3.30;;
16189;SDS011;41754;51.498;7.540;2022-07-18T21:20:08;5.28;;;3.33;;
16189;SDS011;41754;51.498;7.540;2022-07-18T21:22:37;8.13;;;3.45;;
16189;SDS011;41754;51.498;7.540;2022-07-18T21:25:07;4.03;;;3.40;;
16189;SDS011;41754;51.498;7.540;2022-07-18T21:27:36;5.47;;;3.65;;
16189;SDS011;41754;51.498;7.540;2022-07-18T21:30:04;5.30;;;3.70;;
16189;SDS011;41754;51.498;7.540;2022-07-18T21:32:33;5.65;;;3.42;;
16189;SDS011;41754;51.498;7.540;2022-07-18T21:35:01;3.53;;;3.08;;
16189;SDS011;41754;51.498;7.540;2022-07-18T21:37:29;4.05;;;3.08;;
16189;SDS011;41754;51.498;7.540;2022-07-18T21:39:57;6.07;;;3.10;;
16189;SDS011;41754;51.498;7.540;2022-07-18T21:42:26;3.63;;;2.80;;
16189;SDS011;41754;51.498;7.540;2022-07-18T21:44:54;3.58;;;3.20;;
16189;SDS011;41754;51.498;7.540;2022-07-18T21:47:24;3.38;;;2.92;;
16189;SDS011;41754;51.498;7.540;2022-07-18T21:49:52;4.15;;;2.80;;
16189;SDS011;41754;51.498;7.540;2022-07-18T21:52:20;6.60;;;3.60;;
16189;SDS011;41754;51.498;7.540;2022-07-18T21:54:49;6.18;;;3.35;;
16189;SDS011;41754;51.498;7.540;2022-07-18T21:57:18;3.70;;;3.22;;
16189;SDS011;41754;51.498;7.540;2022-07-18T21:59:48;6.18;;;3.58;;
16189;SDS011;41754;51.498;7.540;2022-07-18T22:02:16;3.95;;;3.38;;
16189;SDS011;41754;51.498;7.540;2022-07-18T22:04:45;4.55;;;3.17;;
16189;SDS011;41754;51.498;7.540;2022-07-18T22:07:13;7.15;;;3.28;;
16189;SDS011;41754;51.498;7.540;2022-07-18T22:09:41;4.40;;;2.92;;
16189;SDS011;41754;51.498;7.540;2022-07-18T22:12:09;4.85;;;3.38;;
16189;SDS011;41754;51.498;7.540;2022-07-18T22:14:37;5.22;;;3.35;;
16189;SDS011;41754;51.498;7.540;2022-07-18T22:17:06;5.22;;;3.55;;
16189;SDS011;41754;51.498;7.540;2022-07-18T22:19:34;3.67;;;2.65;;
16189;SDS011;41754;51.498;7.540;2022-07-18T22:22:03;4.10;;;3.17;;
16189;SDS011;41754;51.498;7.540;2022-07-18T22:24:31;4.38;;;3.10;;
16189;SDS011;41754;51.498;7.540;2022-07-18T22:26:58;4.63;;;3.40;;
16189;SDS011;41754;51.498;7.540;2022-07-18T22:29:27;5.90;;;3.22;;
16189;SDS011;41754;51.498;7.540;2022-07-18T22:31:55;6.43;;;2.67;;
16189;SDS011;41754;51.498;7.540;2022-07-18T22:34:25;5.20;;;3.50;;
16189;SDS011;41754;51.498;7.540;2022-07-18T22:36:53;5.00;;;3.17;;
16189;SDS011;41754;51.498;7.540;2022-07-18T22:39:20;6.18;;;3.00;;
16189;SDS011;41754;51.498;7.540;2022-07-18T22:41:49;4.45;;;2.85;;
16189;SDS011;41754;51.498;7.540;2022-07-18T22:44:16;3.55;;;3.05;;
16189;SDS011;41754;51.498;7.540;2022-07-18T22:46:44;4.57;;;3.05;;
16189;SDS011;41754;51.498;7.540;2022-07-18T22:49:12;5.20;;;3.33;;
16189;SDS011;41754;51.498;7.540;2022-07-18T22:51:41;4.88;;;2.60;;
16189;SDS011;41754;51.498;7.540;2022-07-18T22:54:09;3.38;;;2.85;;
16189;SDS011;41754;51.498;7.540;2022-07-18T22:56:37;3.58;;;3.22;;
16189;SDS011;41754;51.498;7.540;2022-07-18T22:59:05;8.95;;;3.63;;
16189;SDS011;41754;51.498;7.540;2022-07-18T23:01:33;10.38;;;4.97;;
16189;SDS011;41754;51.498;7.540;2022-07-18T23:04:01;6.18;;;3.78;;
16189;SDS011;41754;51.498;7.540;2022-07-18T23:06:30;5.18;;;3.15;;
16189;SDS011;41754;51.498;7.540;2022-07-18T23:09:00;6.20;;;3.60;;
16189;SDS011;41754;51.498;7.540;2022-07-18T23:11:27;4.93;;;3.35;;
16189;SDS011;41754;51.498;7.540;2022-07-18T23:13:55;6.22;;;3.45;;
16189;SDS011;41754;51.498;7.540;2022-07-18T23:16:23;6.32;;;3.70;;
16189;SDS011;41754;51.498;7.540;2022-07-18T23:18:51;7.15;;;3.78;;
16189;SDS011;41754;51.498;7.540;2022-07-18T23:21:19;7.00;;;3.85;;
16189;SDS011;41754;51.498;7.540;2022-07-18T23:23:47;4.63;;;3.33;;
16189;SDS011;41754;51.498;7.540;2022-07-18T23:26:16;3.20;;;2.90;;
16189;SDS011;41754;51.498;7.540;2022-07-18T23:28:45;5.47;;;3.33;;
16189;SDS011;41754;51.498;7.540;2022-07-18T23:31:13;3.72;;;2.75;;
16189;SDS011;41754;51.498;7.540;2022-07-18T23:33:41;5.88;;;3.05;;
16189;SDS011;41754;51.498;7.540;2022-07-18T23:36:09;5.97;;;3.17;;
16189;SDS011;41754;51.498;7.540;2022-07-18T23:38:37;4.65;;;3.13;;
16189;SDS011;41754;51.498;7.540;2022-07-18T23:41:05;3.50;;;3.13;;
16189;SDS011;41754;51.498;7.540;2022-07-18T23:43:35;5.88;;;3.38;;
16189;SDS011;41754;51.498;7.540;2022-07-18T23:46:03;3.40;;;3.10;;
16189;SDS011;41754;51.498;7.540;2022-07-18T23:48:31;4.97;;;3.13;;
16189;SDS011;41754;51.498;7.540;2022-07-18T23:50:58;8.75;;;3.08;;
16189;SDS011;41754;51.498;7.540;2022-07-18T23:53:26;4.80;;;3.10;;
16189;SDS011;41754;51.498;7.540;2022-07-18T23:55:54;3.17;;;2.70;;
16189;SDS011;41754;51.498;7.540;2022-07-18T23:58:22;5.20;;;2.53;;
